地図

経路データ

SID SEASON NUMBER BASIN SUBBASIN NAME ISO_TIME NATURE LAT LON WMO_WIND WMO_PRES WMO_AGENCY TRACK_TYPE DIST2LAND LANDFALL IFLAG USA_AGENCY USA_ATCF_ID USA_LAT USA_LON USA_RECORD USA_STATUS USA_WIND USA_PRES USA_SSHS USA_R34_NE USA_R34_SE USA_R34_SW USA_R34_NW USA_R50_NE USA_R50_SE USA_R50_SW USA_R50_NW USA_R64_NE USA_R64_SE USA_R64_SW USA_R64_NW USA_POCI USA_ROCI USA_RMW USA_EYE TOKYO_LAT TOKYO_LON TOKYO_GRADE TOKYO_WIND TOKYO_PRES TOKYO_R50_DIR TOKYO_R50_LONG TOKYO_R50_SHORT TOKYO_R30_DIR TOKYO_R30_LONG TOKYO_R30_SHORT TOKYO_LAND CMA_LAT CMA_LON CMA_CAT CMA_WIND CMA_PRES HKO_LAT HKO_LON HKO_CAT HKO_WIND HKO_PRES NEWDELHI_LAT NEWDELHI_LON NEWDELHI_GRADE NEWDELHI_WIND NEWDELHI_PRES NEWDELHI_CI NEWDELHI_DP NEWDELHI_POCI REUNION_LAT REUNION_LON REUNION_TYPE REUNION_WIND REUNION_PRES REUNION_TNUM REUNION_CI REUNION_RMW REUNION_R34_NE REUNION_R34_SE REUNION_R34_SW REUNION_R34_NW REUNION_R50_NE REUNION_R50_SE REUNION_R50_SW REUNION_R50_NW REUNION_R64_NE REUNION_R64_SE REUNION_R64_SW REUNION_R64_NW BOM_LAT BOM_LON BOM_TYPE BOM_WIND BOM_PRES BOM_TNUM BOM_CI BOM_RMW BOM_R34_NE BOM_R34_SE BOM_R34_SW BOM_R34_NW BOM_R50_NE BOM_R50_SE BOM_R50_SW BOM_R50_NW BOM_R64_NE BOM_R64_SE BOM_R64_SW BOM_R64_NW BOM_ROCI BOM_POCI BOM_EYE BOM_POS_METHOD BOM_PRES_METHOD NADI_LAT NADI_LON NADI_CAT NADI_WIND NADI_PRES WELLINGTON_LAT WELLINGTON_LON WELLINGTON_WIND WELLINGTON_PRES DS824_LAT DS824_LON DS824_STAGE DS824_WIND DS824_PRES TD9636_LAT TD9636_LON TD9636_STAGE TD9636_WIND TD9636_PRES TD9635_LAT TD9635_LON TD9635_WIND TD9635_PRES TD9635_ROCI NEUMANN_LAT NEUMANN_LON NEUMANN_CLASS NEUMANN_WIND NEUMANN_PRES MLC_LAT MLC_LON MLC_CLASS MLC_WIND MLC_PRES USA_GUST BOM_GUST BOM_GUST_PER REUNION_GUST REUNION_GUST_PER USA_SEAHGT USA_SEARAD_NE USA_SEARAD_SE USA_SEARAD_SW USA_SEARAD_NW STORM_SPEED STORM_DIR
1893238N12339 1893 35 NA NA NOT_NAMED 1893-08-25 12:00:00 TS 12.0000 -21.0000 main 458 458 _____________O -1 12.0000 -21.0000 TD 30 13 278
1893238N12339 1893 35 NA NA NOT_NAMED 1893-08-25 15:00:00 TS 12.0904 -21.6624 main 533 533 _____________P -1 12.0904 -21.6624 TD 32 13 279
1893238N12339 1893 35 NA NA NOT_NAMED 1893-08-25 18:00:00 TS 12.2000 -22.3000 main 589 589 _____________O -1 12.2000 -22.3000 TS 35 12 282
1893238N12339 1893 35 NA NA NOT_NAMED 1893-08-25 21:00:00 TS 12.3423 -22.9000 main 642 638 _____________P -1 12.3423 -22.9000 TS 40 12 284
1893238N12339 1893 35 NA NA NOT_NAMED 1893-08-26 00:00:00 TS 12.5000 -23.5000 main 693 693 _____________O -1 12.5000 -23.5000 TS 45 13 284
1893238N12339 1893 35 NA NA NOT_NAMED 1893-08-26 03:00:00 TS 12.6574 -24.1500 main 747 747 _____________P -1 12.6574 -24.1500 TS 50 13 283
1893238N12339 1893 35 NA NA NOT_NAMED 1893-08-26 06:00:00 TS 12.8000 -24.8000 main 816 816 _____________O -1 12.8000 -24.8000 TS 55 12 281
1893238N12339 1893 35 NA NA NOT_NAMED 1893-08-26 09:00:00 TS 12.8921 -25.3853 main 876 876 _____________P -1 12.8921 -25.3853 TS 57 12 280
1893238N12339 1893 35 NA NA NOT_NAMED 1893-08-26 12:00:00 TS 13.0000 -26.0000 main 937 937 _____________O -1 13.0000 -26.0000 TS 60 13 283
1893238N12339 1893 35 NA NA NOT_NAMED 1893-08-26 15:00:00 TS 13.1850 -26.7275 main 1007 1007 _____________P -1 13.1850 -26.7275 TS 62 15 285
1893238N12339 1893 35 NA NA NOT_NAMED 1893-08-26 18:00:00 TS 13.4000 -27.5000 main 1088 1088 _____________O -1 13.4000 -27.5000 HU 65 16 285
1893238N12339 1893 35 NA NA NOT_NAMED 1893-08-26 21:00:00 TS 13.5926 -28.2876 main 1171 1171 _____________P -1 13.5926 -28.2876 HU 65 15 285
1893238N12339 1893 35 NA NA NOT_NAMED 1893-08-27 00:00:00 TS 13.8000 -29.0000 main 1243 1243 _____________O -1 13.8000 -29.0000 HU 65 12 292
1893238N12339 1893 35 NA NA NOT_NAMED 1893-08-27 03:00:00 TS 14.0490 -29.4629 main 1295 1294 _____________P -1 14.0490 -29.4629 HU 65 11 297
1893238N12339 1893 35 NA NA NOT_NAMED 1893-08-27 06:00:00 TS 14.3000 -30.0000 main 1346 1346 _____________O -1 14.3000 -30.0000 HU 65 15 287
1893238N12339 1893 35 NA NA NOT_NAMED 1893-08-27 09:00:00 TS 14.4858 -30.9627 main 1453 1453 _____________P -1 14.4858 -30.9627 HU 67 20 282
1893238N12339 1893 35 NA NA NOT_NAMED 1893-08-27 12:00:00 TS 14.7000 -32.0000 main 1560 1560 _____________O -1 14.7000 -32.0000 HU 70 18 287
1893238N12339 1893 35 NA NA NOT_NAMED 1893-08-27 15:00:00 TS 15.0268 -32.7876 main 1645 1645 _____________P -1 15.0268 -32.7876 HU 70 16 296
1893238N12339 1893 35 NA NA NOT_NAMED 1893-08-27 18:00:00 TS 15.4000 -33.5000 main 1720 1720 _____________O -1 15.4000 -33.5000 HU 70 16 297
1893238N12339 1893 35 NA NA NOT_NAMED 1893-08-27 21:00:00 TS 15.7497 -34.2503 main 1806 1806 _____________P -1 15.7497 -34.2503 HU 70 16 296
1893238N12339 1893 35 NA NA NOT_NAMED 1893-08-28 00:00:00 TS 16.1000 -35.0000 main 1882 1882 _____________O -1 16.1000 -35.0000 HU 70 16 296
1893238N12339 1893 35 NA NA NOT_NAMED 1893-08-28 03:00:00 TS 16.4497 -35.7503 main 1969 1969 _____________P -1 16.4497 -35.7503 HU 70 16 296
1893238N12339 1893 35 NA NA NOT_NAMED 1893-08-28 06:00:00 TS 16.8000 -36.5000 main 2046 2046 _____________O -1 16.8000 -36.5000 HU 70 16 296
1893238N12339 1893 35 NA NA NOT_NAMED 1893-08-28 09:00:00 TS 17.1497 -37.2503 main 2094 2070 _____________P -1 17.1497 -37.2503 HU 72 16 296
1893238N12339 1893 35 NA NA NOT_NAMED 1893-08-28 12:00:00 TS 17.5000 -38.0000 main 2070 2041 _____________O -1 17.5000 -38.0000 HU 75 16 296
1893238N12339 1893 35 NA NA NOT_NAMED 1893-08-28 15:00:00 TS 17.8572 -38.7502 main 2042 2016 _____________P -1 17.8572 -38.7502 HU 75 16 296
1893238N12339 1893 35 NA NA NOT_NAMED 1893-08-28 18:00:00 TS 18.2000 -39.5000 main 2017 1996 _____________O -1 18.2000 -39.5000 HU 75 16 296
1893238N12339 1893 35 NA NA NOT_NAMED 1893-08-28 21:00:00 TS 18.5372 -40.2499 main 1996 1972 _____________P -1 18.5372 -40.2499 HU 75 15 293
1893238N12339 1893 35 NA NA NOT_NAMED 1893-08-29 00:00:00 TS 18.8000 -41.0000 main 1972 1937 _____________O -1 18.8000 -41.0000 HU 75 15 283
1893238N12339 1893 35 NA NA NOT_NAMED 1893-08-29 03:00:00 TS 18.8697 -41.7513 main 1930 1894 _____________P -1 18.8697 -41.7513 HU 75 14 278
1893238N12339 1893 35 NA NA NOT_NAMED 1893-08-29 06:00:00 TS 19.0000 -42.5000 main 1894 1881 _____________O -1 19.0000 -42.5000 HU 75 15 292
1893238N12339 1893 35 NA NA NOT_NAMED 1893-08-29 09:00:00 TS 19.4322 -43.2498 main 1888 1886 _____________P -1 19.4322 -43.2498 HU 75 17 305
1893238N12339 1893 35 NA NA NOT_NAMED 1893-08-29 12:00:00 TS 20.0000 -44.0000 main 1900 1899 _____________O -1 20.0000 -44.0000 HU 75 18 308
1893238N12339 1893 35 NA NA NOT_NAMED 1893-08-29 15:00:00 TS 20.5422 -44.7504 main 1908 1908 _____________P -1 20.5422 -44.7504 HU 75 18 308
1893238N12339 1893 35 NA NA NOT_NAMED 1893-08-29 18:00:00 TS 21.1000 -45.5000 main 1936 1936 _____________O -1 21.1000 -45.5000 HU 75 18 308
1893238N12339 1893 35 NA NA NOT_NAMED 1893-08-29 21:00:00 TS 21.6497 -46.2506 main 1952 1952 _____________P -1 21.6497 -46.2506 HU 75 18 308
1893238N12339 1893 35 NA NA NOT_NAMED 1893-08-30 00:00:00 TS 22.2000 -47.0000 main 1968 1923 _____________O -1 22.2000 -47.0000 HU 75 18 309
1893238N12339 1893 35 NA NA NOT_NAMED 1893-08-30 03:00:00 TS 22.7571 -47.7505 main 1915 1857 _____________P -1 22.7571 -47.7505 HU 75 18 308
1893238N12339 1893 35 NA NA NOT_NAMED 1893-08-30 06:00:00 TS 23.3000 -48.5000 main 1857 1803 _____________O -1 23.3000 -48.5000 HU 75 18 307
1893238N12339 1893 35 NA NA NOT_NAMED 1893-08-30 09:00:00 TS 23.8148 -49.2654 main 1793 1743 _____________P -1 23.8148 -49.2654 HU 75 17 306
1893238N12339 1893 35 NA NA NOT_NAMED 1893-08-30 12:00:00 TS 24.3000 -50.0000 main 1743 1701 _____________O -1 24.3000 -50.0000 HU 75 16 306
1893238N12339 1893 35 NA NA NOT_NAMED 1893-08-30 15:00:00 TS 24.7495 -50.6659 main 1692 1658 _____________P -1 24.7495 -50.6659 HU 75 15 307
1893238N12339 1893 35 NA NA NOT_NAMED 1893-08-30 18:00:00 TS 25.2000 -51.3000 main 1658 1623 _____________O -1 25.2000 -51.3000 HU 75 15 309
1893238N12339 1893 35 NA NA NOT_NAMED 1893-08-30 21:00:00 TS 25.7001 -51.9799 main 1619 1594 _____________P -1 25.7001 -51.9799 HU 75 15 310
1893238N12339 1893 35 NA NA NOT_NAMED 1893-08-31 00:00:00 TS 26.2000 -52.6000 main 1594 1578 _____________O -1 26.2000 -52.6000 HU 75 14 314
1893238N12339 1893 35 NA NA NOT_NAMED 1893-08-31 03:00:00 TS 26.6569 -53.0734 main 1581 1574 _____________P -1 26.6569 -53.0734 HU 75 12 318
1893238N12339 1893 35 NA NA NOT_NAMED 1893-08-31 06:00:00 TS 27.1000 -53.5000 main 1574 1561 _____________O -1 27.1000 -53.5000 HU 75 12 316
1893238N12339 1893 35 NA NA NOT_NAMED 1893-08-31 09:00:00 TS 27.5578 -54.0372 main 1568 1559 _____________P -1 27.5578 -54.0372 HU 75 13 315
1893238N12339 1893 35 NA NA NOT_NAMED 1893-08-31 12:00:00 TS 28.0000 -54.5000 main 1559 1559 _____________O -1 28.0000 -54.5000 HU 75 11 323
1893238N12339 1893 35 NA NA NOT_NAMED 1893-08-31 15:00:00 TS 28.4147 -54.7680 main 1567 1567 _____________P -1 28.4147 -54.7680 HU 75 9 336
1893238N12339 1893 35 NA NA NOT_NAMED 1893-08-31 18:00:00 TS 28.8000 -54.9000 main 1591 1591 _____________O -1 28.8000 -54.9000 HU 75 8 346
1893238N12339 1893 35 NA NA NOT_NAMED 1893-08-31 21:00:00 TS 29.1574 -54.9728 main 1616 1616 _____________P -1 29.1574 -54.9728 HU 75 7 353
1893238N12339 1893 35 NA NA NOT_NAMED 1893-09-01 00:00:00 TS 29.5000 -55.0000 main 1640 1640 _____________O -1 29.5000 -55.0000 HU 75 7 353
1893238N12339 1893 35 NA NA NOT_NAMED 1893-09-01 03:00:00 TS 29.8425 -55.0649 main 1658 1658 _____________P -1 29.8425 -55.0649 HU 75 7 353
1893238N12339 1893 35 NA NA NOT_NAMED 1893-09-01 06:00:00 TS 30.2000 -55.1000 main 1691 1691 _____________O -1 30.2000 -55.1000 HU 75 8 0
1893238N12339 1893 35 NA NA NOT_NAMED 1893-09-01 09:00:00 TS 30.6150 -55.0726 main 1693 1659 _____________P -1 30.6150 -55.0726 HU 75 8 6
1893238N12339 1893 35 NA NA NOT_NAMED 1893-09-01 12:00:00 TS 31.0000 -55.0000 main 1659 1635 _____________O -1 31.0000 -55.0000 HU 75 7 11
1893238N12339 1893 35 NA NA NOT_NAMED 1893-09-01 15:00:00 TS 31.2724 -54.9298 main 1635 1619 _____________P -1 31.2724 -54.9298 HU 75 5 19
1893238N12339 1893 35 NA NA NOT_NAMED 1893-09-01 18:00:00 TS 31.5000 -54.8000 main 1619 1601 _____________O -1 31.5000 -54.8000 HU 75 6 33
1893238N12339 1893 35 NA NA NOT_NAMED 1893-09-01 21:00:00 TS 31.7501 -54.5651 main 1593 1581 _____________P -1 31.7501 -54.5651 HU 75 7 40
1893238N12339 1893 35 NA NA NOT_NAMED 1893-09-02 00:00:00 TS 32.0000 -54.3000 main 1581 1564 _____________O -1 32.0000 -54.3000 HU 75 6 32
1893238N12339 1893 35 NA NA NOT_NAMED 1893-09-02 03:00:00 TS 32.2487 -54.2039 main 1564 1539 _____________P -1 32.2487 -54.2039 HU 75 6 34
1893238N12339 1893 35 NA NA NOT_NAMED 1893-09-02 06:00:00 TS 32.5000 -53.9000 main 1542 1535 _____________O -1 32.5000 -53.9000 HU 75 12 62
1893238N12339 1893 35 NA NA NOT_NAMED 1893-09-02 09:00:00 TS 32.7899 -52.9968 main 1536 1515 _____________P -1 32.7899 -52.9968 HU 75 17 73
1893238N12339 1893 35 NA NA NOT_NAMED 1893-09-02 12:00:00 TS 33.0000 -52.0000 main 1517 1517 _____________O -1 33.0000 -52.0000 HU 75 13 79
1893238N12339 1893 35 NA NA NOT_NAMED 1893-09-02 15:00:00 TS 33.0361 -51.4390 main 1521 1521 _____________P -1 33.0361 -51.4390 HU 75 8 90
1893238N12339 1893 35 NA NA NOT_NAMED 1893-09-02 18:00:00 TS 33.0000 -51.0000 main 1525 1525 _____________O -1 33.0000 -51.0000 HU 75 8 93
1893238N12339 1893 35 NA NA NOT_NAMED 1893-09-02 21:00:00 TS 32.9999 -50.4575 main 1530 1530 _____________P -1 32.9999 -50.4575 HU 72 9 90
1893238N12339 1893 35 NA NA NOT_NAMED 1893-09-03 00:00:00 TS 33.0000 -49.9000 main 1539 1539 _____________O -1 33.0000 -49.9000 HU 70 9 90
1893238N12339 1893 35 NA NA NOT_NAMED 1893-09-03 03:00:00 TS 32.9999 -49.3425 main 1549 1549 _____________P -1 32.9999 -49.3425 HU 70 9 90
1893238N12339 1893 35 NA NA NOT_NAMED 1893-09-03 06:00:00 TS 33.0000 -48.8000 main 1558 1558 _____________O -1 33.0000 -48.8000 HU 70 9 90
1893238N12339 1893 35 NA NA NOT_NAMED 1893-09-03 09:00:00 TS 32.9999 -48.2700 main 1569 1569 _____________P -1 32.9999 -48.2700 HU 67 8 90
1893238N12339 1893 35 NA NA NOT_NAMED 1893-09-03 12:00:00 TS 33.0000 -47.8000 main 1580 1580 _____________O -1 33.0000 -47.8000 HU 65 7 90
1893238N12339 1893 35 NA NA NOT_NAMED 1893-09-03 15:00:00 TS 32.9997 -47.4275 main 1591 1591 _____________P -1 32.9997 -47.4275 HU 65 6 90
1893238N12339 1893 35 NA NA NOT_NAMED 1893-09-03 18:00:00 TS 33.0000 -47.1000 main 1599 1599 _____________O -1 33.0000 -47.1000 HU 65 6 90
1893238N12339 1893 35 NA NA NOT_NAMED 1893-09-03 21:00:00 TS 32.9999 -46.7500 main 1610 1607 _____________P -1 32.9999 -46.7500 HU 60 6 90
1893238N12339 1893 35 NA NA NOT_NAMED 1893-09-04 00:00:00 TS 33.0000 -46.4000 main 1619 1619 _____________O -1 33.0000 -46.4000 TS 55 6 90
1893238N12339 1893 35 NA NA NOT_NAMED 1893-09-04 03:00:00 TS 32.9999 -46.0500 main 1631 1628 _____________P -1 32.9999 -46.0500 TS 50 6 90
1893238N12339 1893 35 NA NA NOT_NAMED 1893-09-04 06:00:00 TS 33.0000 -45.7000 main 1641 1641 _____________O -1 33.0000 -45.7000 TS 45 6 90
1893238N12339 1893 35 NA NA NOT_NAMED 1893-09-04 09:00:00 TS 33.0002 -45.3500 main 1654 1650 _____________P -1 33.0002 -45.3500 TS 40 6 90
1893238N12339 1893 35 NA NA NOT_NAMED 1893-09-04 12:00:00 TS 33.0000 -45.0000 main 1664 _____________O -1 33.0000 -45.0000 TS 35 6 90

IBTrACS Databaseについて

本データベースは、米国NOAAが公開する1842年以降の世界の熱帯低気圧のベストトラックデータアーカイブInternational Best Track Archive for Climate Stewardship (IBTrACS)を、ウェブで閲覧しやすい形式に変換したものです。

最終更新日:2021-12-03